WET,Max TemperatureF,Mean TemperatureF,Min TemperatureF,Max Dew PointF,MeanDew PointF,Min DewpointF,Max Humidity, Mean Humidity, Min Humidity, Max Sea Level PressureIn, Mean Sea Level PressureIn, Min Sea Level PressureIn, Max VisibilityMiles, Mean VisibilityMiles, Min VisibilityMiles, Max Wind SpeedMPH, Mean Wind SpeedMPH, Max Gust SpeedMPH,PrecipitationIn, CloudCover, Events, WindDirDegrees
2012-11-1,77,72,67,72,69,65,94,88,78,30.04,29.93,29.83,6,5,2,13,6,,0.39,4,Rain,226
2012-11-2,86,76,66,68,66,63,100,82,45,30.06,30.03,29.98,6,5,2,12,5,,0.00,5,,90
2012-11-3,92,79,66,66,63,54,94,65,25,30.06,30.00,29.94,6,6,6,14,7,,0.00,3,,64
2012-11-4,88,77,66,70,65,63,88,67,39,30.04,29.99,29.95,6,6,6,12,7,,0.00,,,68
2012-11-5,89,78,67,66,62,55,88,59,34,30.04,29.96,29.91,6,6,6,16,6,,0.00,2,Rain,344
2012-11-6,87,78,68,67,63,60,83,62,32,29.99,29.91,29.83,6,6,6,20,9,,0.00,5,Rain,72
2012-11-7,81,72,64,68,64,61,94,76,46,29.95,29.89,29.80,6,6,4,14,5,,0.00,6,,220
2012-11-8,77,70,64,68,64,59,94,79,54,30.01,29.96,29.92,6,5,3,13,4,,0.00,5,,214
2012-11-9,72,64,56,59,54,50,94,69,36,30.06,30.01,29.98,6,6,6,16,6,,0.00,2,,231
2012-11-10,72,63,54,59,54,52,94,74,45,30.06,30.02,29.98,6,6,6,22,6,,0.00,2,,237
2012-11-11,75,63,51,59,52,43,94,67,41,30.07,29.99,29.92,6,6,6,20,7,,0.00,2,,247
2012-11-12,72,64,50,46,43,35,82,50,24,29.98,29.92,29.86,6,6,6,15,6,,0.00,,,197
2012-11-13,73,58,44,50,47,41,88,68,34,30.04,29.97,29.92,6,6,6,10,3,,0.00,3,,164
2012-11-14,73,60,48,57,51,45,94,74,34,29.97,29.92,29.86,6,6,6,12,5,,0.00,,,93
2012-11-15,73,62,50,57,53,48,94,78,44,30.01,29.96,29.92,6,6,5,14,5,,0.00,3,,91
2012-11-16,73,61,49,57,52,48,94,76,41,30.01,29.97,29.92,6,6,6,9,4,,0.00,,,68
2012-11-17,68,58,49,63,57,53,94,86,73,29.99,29.93,29.89,6,5,2,15,4,,1.06,4,Rain,74
2012-11-18,73,66,58,57,54,50,88,70,36,30.01,29.95,29.89,6,6,5,18,10,,0.00,2,,244
2012-11-19,71,60,48,55,52,46,94,78,52,30.06,30.02,29.98,6,6,6,12,4,,0.00,1,,106
2012-11-20,70,58,46,57,52,45,100,81,54,30.11,30.06,30.04,6,6,6,12,4,,0.00,,,82
2012-11-21,73,60,46,58,53,48,94,77,41,30.06,30.02,29.95,6,6,6,14,6,,0.00,,,78
2012-11-22,76,62,49,61,55,50,94,81,53,30.09,30.04,30.01,6,6,5,9,4,,0.00,3,,135
2012-11-23,82,68,53,54,51,43,94,65,17,30.09,30.04,29.98,6,6,4,10,6,,0.00,,,81
2012-11-24,83,66,50,52,48,42,88,64,14,30.09,30.05,30.01,6,6,6,12,5,,0.00,3,,77
2012-11-25,82,70,57,50,43,39,77,39,13,30.01,29.95,29.88,6,6,6,20,11,,0.00,,,76
2012-11-26,80,72,63,50,43,37,56,34,14,29.92,29.87,29.83,6,6,6,24,15,,0.00,5,,64
2012-11-27,76,68,59,54,51,48,82,57,34,29.92,29.88,29.83,6,6,6,12,7,,0.00,6,,128
2012-11-28,71,60,48,52,47,43,88,65,28,29.96,29.90,29.86,6,6,6,10,5,,0.00,,,154
2012-11-29,70,58,45,50,47,41,93,69,29,30.00,29.94,29.89,6,6,6,8,5,,0.00,1,,90
2012-11-30,69,56,42,50,45,40,93,68,28,30.00,29.93,29.88,6,6,6,25,6,,0.00,3,,237